Time;durP1;ratioP1;P1;durP2;ratioP2;P2;SDS_P1;SDS_P2;PMS_P1;PMS_P2;Temp;Humidity;BMP_temperature;BMP_pressure;BME280_temperature;BME280_humidity;BME280_pressure;Samples;Min_cycle;Max_cycle;Signal;HPM_P1;HPM_P2
2022/06/04 00:02:14;;;;;;;6.47;5.60;;;18.60;99.90;;;;;;5013304;28;20203;-73
2022/06/04 00:04:40;;;;;;;8.03;6.60;;;18.40;99.90;;;;;;5012728;28;20334;-73
2022/06/04 00:07:09;;;;;;;9.63;5.87;;;18.30;99.90;;;;;;5010794;28;20262;-73
2022/06/04 00:09:35;;;;;;;7.67;6.43;;;18.40;99.90;;;;;;5012875;28;20215;-73
2022/06/04 00:17:33;;;;;;;7.40;6.60;;;18.30;99.90;;;;;;5003204;28;20214;-73
2022/06/04 00:19:59;;;;;;;7.50;6.50;;;18.30;99.90;;;;;;5012475;28;20192;-73
2022/06/04 00:22:26;;;;;;;7.10;6.23;;;18.30;99.90;;;;;;5013144;28;20207;-73
2022/06/04 00:24:53;;;;;;;7.20;5.90;;;18.00;99.90;;;;;;5012431;28;20578;-72
2022/06/04 00:27:21;;;;;;;7.53;6.00;;;17.80;99.90;;;;;;5009308;28;20291;-74
2022/06/04 00:29:48;;;;;;;6.67;5.87;;;17.70;99.90;;;;;;5012247;28;20715;-73
2022/06/04 00:32:17;;;;;;;9.73;7.60;;;17.60;99.90;;;;;;5012444;28;20716;-73
2022/06/04 00:34:44;;;;;;;8.13;6.73;;;17.50;99.90;;;;;;5012325;28;20216;-73
2022/06/04 00:37:10;;;;;;;7.53;6.07;;;17.40;99.90;;;;;;5001957;28;20223;-73
2022/06/04 00:39:38;;;;;;;7.87;6.77;;;17.40;99.90;;;;;;5012631;28;20197;-73
2022/06/04 00:42:09;;;;;;;9.07;7.03;;;17.40;99.90;;;;;;5012392;28;20192;-73
2022/06/04 00:45:15;;;;;;;9.73;6.80;;;17.50;99.90;;;;;;5010053;28;20192;-73
2022/06/04 00:47:42;;;;;;;9.40;7.07;;;17.50;99.90;;;;;;5009652;28;20703;-73
2022/06/04 00:50:09;;;;;;;9.93;7.23;;;17.60;99.90;;;;;;5012410;28;20220;-73
2022/06/04 00:52:36;;;;;;;7.77;6.83;;;17.80;99.90;;;;;;5001291;28;20196;-72
2022/06/04 00:55:06;;;;;;;7.47;6.63;;;17.70;99.90;;;;;;5011784;28;20212;-73
2022/06/04 00:57:51;;;;;;;9.10;6.97;;;17.70;99.90;;;;;;5011975;28;20615;-73
2022/06/04 01:00:35;;;;;;;10.33;7.17;;;17.60;99.90;;;;;;5005542;28;20626;-73
2022/06/04 01:03:29;;;;;;;10.53;7.73;;;17.60;99.90;;;;;;5010592;28;20200;-73
2022/06/04 01:06:17;;;;;;;8.30;7.33;;;17.50;99.90;;;;;;5010813;28;20324;-73
2022/06/04 01:09:11;;;;;;;8.87;7.43;;;17.50;99.90;;;;;;5006437;28;20208;-73
2022/06/04 01:12:11;;;;;;;9.30;7.47;;;17.30;99.90;;;;;;5008813;28;20228;-73
2022/06/04 01:15:06;;;;;;;9.90;7.50;;;17.10;99.90;;;;;;5008563;28;20220;-73
2022/06/04 01:17:47;;;;;;;10.63;8.07;;;17.10;99.90;;;;;;5007856;28;20207;-73
2022/06/04 01:20:18;;;;;;;12.00;8.83;;;17.00;99.90;;;;;;5005749;28;20215;-73
2022/06/04 01:22:59;;;;;;;10.53;7.97;;;17.10;99.90;;;;;;5012196;28;20219;-72
2022/06/04 01:25:47;;;;;;;11.70;8.47;;;17.20;99.90;;;;;;5000080;28;20730;-72
2022/06/04 01:28:16;;;;;;;10.17;8.20;;;17.30;99.90;;;;;;5010294;28;20230;-73
2022/06/04 01:30:50;;;;;;;9.80;7.73;;;17.30;99.90;;;;;;5011160;28;20227;-73
2022/06/04 01:33:29;;;;;;;12.87;8.73;;;17.20;99.90;;;;;;4999727;28;20272;-73
2022/06/04 01:36:29;;;;;;;10.33;7.80;;;16.90;99.90;;;;;;5005020;28;20228;-74
2022/06/04 01:39:06;;;;;;;10.90;7.93;;;16.80;99.90;;;;;;4985919;28;20205;-73
2022/06/04 01:41:38;;;;;;;11.13;8.80;;;16.90;99.90;;;;;;5003293;28;20207;-72
2022/06/04 01:44:09;;;;;;;11.77;9.13;;;16.90;99.90;;;;;;5006079;28;20208;-73
2022/06/04 01:46:40;;;;;;;12.60;8.20;;;16.90;99.90;;;;;;5007102;28;20220;-72
2022/06/04 01:49:27;;;;;;;11.87;9.37;;;16.90;99.90;;;;;;5006357;28;20229;-73
2022/06/04 01:52:02;;;;;;;10.37;8.30;;;16.90;99.90;;;;;;5004315;28;20285;-73
2022/06/04 01:54:50;;;;;;;10.80;8.60;;;16.90;99.90;;;;;;5006857;28;20204;-73
2022/06/04 01:57:38;;;;;;;12.47;8.80;;;16.90;99.90;;;;;;5000434;28;20339;-73
2022/06/04 02:00:19;;;;;;;14.70;9.83;;;17.00;99.90;;;;;;5007261;28;20661;-73
2022/06/04 02:02:54;;;;;;;13.27;9.03;;;17.10;99.90;;;;;;5005587;28;20206;-72
2022/06/04 02:05:32;;;;;;;14.40;9.87;;;17.30;99.90;;;;;;5001150;28;20283;-73
2022/06/04 02:08:04;;;;;;;11.80;9.23;;;17.20;99.90;;;;;;5002706;28;20606;-73
2022/06/04 02:10:35;;;;;;;12.80;9.63;;;17.20;99.90;;;;;;5006551;28;20232;-73
2022/06/04 02:13:11;;;;;;;16.67;10.07;;;17.20;99.90;;;;;;5005698;28;20199;-73
2022/06/04 02:15:54;;;;;;;12.77;9.67;;;17.10;99.90;;;;;;4988334;28;20227;-73
2022/06/04 02:18:20;;;;;;;13.40;9.63;;;17.20;99.90;;;;;;5000949;28;20196;-73
2022/06/04 02:20:47;;;;;;;14.83;10.23;;;17.20;99.90;;;;;;5004561;28;20204;-73
2022/06/04 02:23:14;;;;;;;13.37;9.83;;;17.20;99.90;;;;;;5005787;28;20192;-73
2022/06/04 02:25:41;;;;;;;12.30;10.20;;;17.30;99.90;;;;;;5004948;28;20220;-73
2022/06/04 02:28:09;;;;;;;13.03;9.37;;;17.20;99.90;;;;;;5005046;28;20201;-73
2022/06/04 02:30:54;;;;;;;13.20;10.53;;;17.10;99.90;;;;;;5005637;28;20235;-73
2022/06/04 02:33:35;;;;;;;14.47;11.20;;;16.90;99.90;;;;;;5001572;28;20584;-73
2022/06/04 02:36:30;;;;;;;12.67;10.80;;;16.80;99.90;;;;;;4986134;28;20235;-73
2022/06/04 02:39:16;;;;;;;13.13;10.03;;;16.70;99.90;;;;;;5003305;28;20236;-74
2022/06/04 02:41:52;;;;;;;11.13;9.63;;;16.60;99.90;;;;;;5004459;28;20593;-73
2022/06/04 02:44:28;;;;;;;12.63;9.50;;;16.60;99.90;;;;;;4999696;28;20253;-71
2022/06/04 02:47:19;;;;;;;11.47;9.23;;;16.50;99.90;;;;;;5003019;28;20207;-73
2022/06/04 02:50:08;;;;;;;13.27;10.20;;;16.40;99.90;;;;;;5004009;28;20234;-73
2022/06/04 02:52:36;;;;;;;14.17;10.50;;;16.40;99.90;;;;;;5000365;28;20664;-73
2022/06/04 02:55:08;;;;;;;14.23;11.73;;;16.40;99.90;;;;;;5002892;28;20213;-73
2022/06/04 02:57:39;;;;;;;15.43;11.43;;;16.30;99.90;;;;;;5005386;28;20192;-73
2022/06/04 03:00:10;;;;;;;13.17;10.10;;;16.30;99.90;;;;;;4998662;28;20199;-71
2022/06/04 03:02:37;;;;;;;14.97;10.73;;;16.20;99.90;;;;;;5005232;28;20250;-73
2022/06/04 03:05:13;;;;;;;12.90;10.13;;;16.20;99.90;;;;;;5002868;28;20221;-73
2022/06/04 03:07:44;;;;;;;14.13;10.80;;;16.20;99.90;;;;;;4989564;28;20278;-72
2022/06/04 03:10:15;;;;;;;17.27;12.20;;;16.10;99.90;;;;;;5000776;28;20196;-73
2022/06/04 03:12:42;;;;;;;17.60;12.20;;;16.30;99.90;;;;;;4986680;28;20219;-73
2022/06/04 03:15:10;;;;;;;15.60;11.43;;;16.30;99.90;;;;;;5003060;28;20521;-73
2022/06/04 03:17:39;;;;;;;17.27;12.27;;;16.20;99.90;;;;;;5006236;28;20200;-72
2022/06/04 03:20:07;;;;;;;14.93;11.60;;;16.20;99.90;;;;;;5003057;28;20623;-73
2022/06/04 03:22:35;;;;;;;15.67;11.43;;;16.10;99.90;;;;;;5004811;28;20196;-73
2022/06/04 03:25:03;;;;;;;18.30;13.37;;;16.20;99.90;;;;;;5001661;28;20225;-73
2022/06/04 03:27:30;;;;;;;17.60;12.77;;;16.20;99.90;;;;;;5006855;28;20212;-73
2022/06/04 03:29:57;;;;;;;15.50;12.40;;;16.40;99.90;;;;;;4990994;28;20208;-71
2022/06/04 03:32:23;;;;;;;17.00;12.77;;;16.50;99.90;;;;;;5008909;28;20222;-73
2022/06/04 03:34:50;;;;;;;18.30;12.10;;;16.50;99.90;;;;;;5005930;28;20220;-73
2022/06/04 03:37:17;;;;;;;15.40;11.80;;;16.60;99.90;;;;;;5007909;28;20263;-73
2022/06/04 03:39:43;;;;;;;17.83;11.90;;;16.50;99.90;;;;;;5006974;28;20208;-73
2022/06/04 03:42:10;;;;;;;17.10;12.73;;;16.50;99.90;;;;;;5006643;28;20195;-74
2022/06/04 03:44:37;;;;;;;18.07;12.17;;;16.40;99.90;;;;;;4989023;28;20201;-72
2022/06/04 03:47:04;;;;;;;15.30;12.27;;;16.40;99.90;;;;;;5008199;28;20567;-73
2022/06/04 03:49:31;;;;;;;16.10;12.53;;;16.30;99.90;;;;;;5007874;28;20200;-74
2022/06/04 03:51:58;;;;;;;14.97;11.83;;;16.30;99.90;;;;;;4987279;28;20216;-71
2022/06/04 03:59:55;;;;;;;15.47;11.43;;;16.50;99.90;;;;;;5004782;28;20325;-73
2022/06/04 04:02:22;;;;;;;14.43;10.67;;;16.50;99.90;;;;;;5001077;28;20674;-73
2022/06/04 04:04:49;;;;;;;16.73;11.80;;;16.50;99.90;;;;;;5008579;28;20216;-74
2022/06/04 04:07:16;;;;;;;21.40;13.53;;;16.60;99.90;;;;;;4989188;28;20685;-73
2022/06/04 04:09:43;;;;;;;14.43;11.40;;;16.70;99.90;;;;;;4991860;28;20255;-73
2022/06/04 04:12:09;;;;;;;15.47;11.70;;;16.80;99.90;;;;;;5005244;28;20217;-74
2022/06/04 04:14:42;;;;;;;14.80;11.83;;;16.80;99.90;;;;;;5005911;28;20212;-73
2022/06/04 04:17:09;;;;;;;15.83;11.73;;;16.80;99.90;;;;;;5007953;28;20562;-74
2022/06/04 04:19:35;;;;;;;15.47;11.30;;;16.90;99.90;;;;;;5007151;28;20592;-74
2022/06/04 04:22:02;;;;;;;15.63;11.23;;;16.90;99.90;;;;;;5003998;28;20201;-73
2022/06/04 04:24:29;;;;;;;15.97;10.97;;;17.00;99.90;;;;;;4989142;28;20196;-74
2022/06/04 04:26:56;;;;;;;15.10;11.13;;;17.10;99.90;;;;;;5002272;28;20212;-73
2022/06/04 04:29:22;;;;;;;18.33;13.10;;;17.20;99.90;;;;;;5006364;28;20216;-73
2022/06/04 04:31:49;;;;;;;16.20;12.33;;;17.50;99.90;;;;;;5007078;28;20220;-72
2022/06/04 04:34:16;;;;;;;16.27;12.30;;;17.80;99.90;;;;;;5009361;28;20200;-73
2022/06/04 04:36:45;;;;;;;16.07;11.70;;;18.00;99.90;;;;;;5004072;28;20200;-74
2022/06/04 04:39:12;;;;;;;13.63;11.33;;;18.20;99.90;;;;;;5008201;28;20540;-72
2022/06/04 04:41:38;;;;;;;18.30;11.23;;;18.40;99.90;;;;;;5008997;28;20199;-72
2022/06/04 04:44:06;;;;;;;15.57;11.37;;;18.50;99.90;;;;;;5003470;28;20203;-74
2022/06/04 04:46:33;;;;;;;14.87;10.73;;;18.40;99.90;;;;;;5008345;28;20216;-74
2022/06/04 04:48:59;;;;;;;12.03;9.90;;;18.40;99.90;;;;;;5002599;28;20200;-73
2022/06/04 04:51:28;;;;;;;12.37;9.23;;;18.50;99.90;;;;;;5004615;28;20219;-74
2022/06/04 04:53:55;;;;;;;13.07;9.67;;;18.50;99.90;;;;;;5004837;28;20318;-74
2022/06/04 04:56:23;;;;;;;13.13;9.60;;;18.70;99.90;;;;;;5005467;28;20216;-74
2022/06/04 04:58:51;;;;;;;12.93;10.60;;;18.80;99.90;;;;;;5003580;28;20196;-74
2022/06/04 05:01:20;;;;;;;11.90;9.63;;;18.90;99.90;;;;;;5004278;28;20259;-73
2022/06/04 05:03:48;;;;;;;12.60;9.90;;;19.00;99.90;;;;;;5003967;28;20615;-73
2022/06/04 05:06:16;;;;;;;14.23;10.73;;;19.10;99.90;;;;;;5003056;28;20738;-74
2022/06/04 05:08:43;;;;;;;15.00;10.73;;;19.30;99.90;;;;;;5004306;28;20710;-73
2022/06/04 05:11:14;;;;;;;12.07;9.63;;;19.30;99.90;;;;;;5006114;28;20220;-74
2022/06/04 05:13:41;;;;;;;13.70;9.80;;;19.50;99.90;;;;;;5007662;28;20189;-73
2022/06/04 05:16:08;;;;;;;13.83;10.70;;;19.60;99.90;;;;;;5002188;28;20692;-74
2022/06/04 05:18:35;;;;;;;17.17;11.50;;;19.50;99.90;;;;;;5005312;28;20200;-73
2022/06/04 05:21:11;;;;;;;15.37;11.40;;;19.60;99.90;;;;;;5001719;28;20201;-75
2022/06/04 05:23:38;;;;;;;15.40;11.43;;;19.30;99.90;;;;;;5001581;28;20204;-74
2022/06/04 05:26:05;;;;;;;16.40;11.80;;;19.50;99.90;;;;;;4983734;28;20220;-73
2022/06/04 05:28:32;;;;;;;15.20;11.10;;;19.40;99.90;;;;;;5007600;28;20192;-73
2022/06/04 05:30:58;;;;;;;14.00;11.17;;;19.60;99.90;;;;;;4987557;28;20213;-73
2022/06/04 05:33:25;;;;;;;15.00;11.97;;;19.50;99.90;;;;;;5004169;28;20746;-74
2022/06/04 05:35:52;;;;;;;12.87;11.23;;;19.40;99.90;;;;;;4999366;28;20216;-74
2022/06/04 05:38:19;;;;;;;13.40;11.03;;;19.60;99.90;;;;;;5007723;28;20204;-72
2022/06/04 05:40:46;;;;;;;14.33;10.80;;;19.60;99.90;;;;;;5003408;28;20683;-74
2022/06/04 05:43:12;;;;;;;13.97;10.63;;;19.70;99.90;;;;;;5003095;28;20197;-73
2022/06/04 05:45:39;;;;;;;15.53;9.80;;;19.90;99.90;;;;;;5009559;28;20239;-73
2022/06/04 05:48:06;;;;;;;13.77;10.67;;;20.00;99.90;;;;;;5001066;28;20571;-73
2022/06/04 05:50:33;;;;;;;15.80;10.40;;;20.20;99.90;;;;;;5007752;28;20195;-73
2022/06/04 05:52:59;;;;;;;12.40;10.07;;;20.10;99.90;;;;;;4999384;28;20217;-74
2022/06/04 05:55:26;;;;;;;12.67;9.47;;;20.30;99.90;;;;;;5003124;28;20704;-74
2022/06/04 05:57:53;;;;;;;11.93;9.80;;;20.20;99.90;;;;;;5001953;28;20238;-74
2022/06/04 06:00:20;;;;;;;13.77;9.30;;;20.20;99.90;;;;;;5005023;28;20203;-73
2022/06/04 06:02:46;;;;;;;11.88;9.02;;;20.30;99.90;;;;;;5005962;28;20727;-74
2022/06/04 06:05:19;;;;;;;12.13;9.68;;;20.50;99.90;;;;;;5005616;28;20234;-74
2022/06/04 06:07:46;;;;;;;10.98;9.50;;;20.80;99.90;;;;;;5005925;28;20196;-74
2022/06/04 06:10:13;;;;;;;12.23;9.60;;;21.20;99.90;;;;;;4997275;28;20197;-73
2022/06/04 06:12:40;;;;;;;11.63;8.75;;;21.40;99.90;;;;;;5007622;28;20212;-74
2022/06/04 06:15:07;;;;;;;11.20;8.80;;;21.70;99.90;;;;;;5007188;28;20209;-73
2022/06/04 06:17:34;;;;;;;13.23;9.98;;;22.00;99.90;;;;;;5003537;28;20228;-74
2022/06/04 06:20:01;;;;;;;10.02;8.07;;;22.40;99.90;;;;;;4999953;28;20679;-74
2022/06/04 06:22:27;;;;;;;14.25;9.75;;;22.80;99.90;;;;;;5002402;28;20200;-73
2022/06/04 06:24:55;;;;;;;9.75;8.10;;;23.10;99.90;;;;;;5000075;28;20235;-74
2022/06/04 06:27:21;;;;;;;10.57;9.48;;;23.40;99.90;;;;;;4997244;28;20695;-73
2022/06/04 06:29:48;;;;;;;13.35;9.95;;;23.70;99.90;;;;;;5000771;28;20200;-74
2022/06/04 06:32:15;;;;;;;14.27;9.70;;;23.80;99.90;;;;;;5000229;28;20217;-73
2022/06/04 06:34:41;;;;;;;13.07;10.77;;;23.70;99.90;;;;;;5001413;28;20219;-74
2022/06/04 06:37:08;;;;;;;11.65;9.65;;;23.70;99.90;;;;;;5003125;28;20196;-73
2022/06/04 06:39:35;;;;;;;12.68;10.00;;;23.70;99.90;;;;;;5002414;28;20199;-73
2022/06/04 06:42:01;;;;;;;11.02;9.27;;;23.70;99.90;;;;;;4999156;28;20212;-73
2022/06/04 06:44:28;;;;;;;11.55;9.77;;;23.80;99.90;;;;;;4982116;28;20605;-73
2022/06/04 06:46:55;;;;;;;13.63;9.57;;;23.70;99.90;;;;;;4982394;28;20204;-73
2022/06/04 06:49:25;;;;;;;13.23;9.88;;;23.60;99.90;;;;;;5000444;28;20205;-73
2022/06/04 06:51:55;;;;;;;12.65;9.80;;;23.50;99.90;;;;;;4998267;28;20225;-73
2022/06/04 06:54:26;;;;;;;13.63;9.95;;;23.60;99.90;;;;;;5004468;28;20200;-74
2022/06/04 06:56:54;;;;;;;12.75;9.35;;;23.60;99.90;;;;;;4999994;28;20188;-74
2022/06/04 06:59:21;;;;;;;11.98;9.07;;;23.60;99.90;;;;;;5000472;28;20220;-74
2022/06/04 07:01:49;;;;;;;10.23;8.80;;;23.80;99.90;;;;;;4999800;28;20204;-74
2022/06/04 07:04:16;;;;;;;11.90;7.57;;;24.10;99.90;;;;;;4990282;28;20669;-74
2022/06/04 07:06:47;;;;;;;11.27;8.35;;;24.40;99.90;;;;;;5009361;28;20207;-74
2022/06/04 07:09:17;;;;;;;9.20;8.07;;;24.60;99.90;;;;;;5003702;28;20188;-74
2022/06/04 07:11:44;;;;;;;11.90;7.57;;;24.60;99.90;;;;;;4990794;28;20216;-75
2022/06/04 07:14:11;;;;;;;9.35;7.82;;;24.60;99.90;;;;;;4994294;28;20196;-73
2022/06/04 07:16:39;;;;;;;12.95;8.30;;;24.80;99.90;;;;;;5004885;28;20215;-74
2022/06/04 07:19:06;;;;;;;10.98;8.07;;;24.80;99.90;;;;;;5002542;28;20231;-74
2022/06/04 07:21:33;;;;;;;10.73;7.93;;;24.70;99.90;;;;;;5010043;28;20192;-74
2022/06/04 07:24:00;;;;;;;12.18;8.35;;;24.70;99.90;;;;;;5002377;28;20200;-74
2022/06/04 07:26:28;;;;;;;11.13;8.18;;;24.80;99.90;;;;;;5004023;28;20212;-74
2022/06/04 07:28:55;;;;;;;8.07;6.68;;;24.50;99.90;;;;;;5009866;28;20195;-73
2022/06/04 07:31:22;;;;;;;8.90;7.78;;;24.80;99.90;;;;;;5008779;28;20192;-75
2022/06/04 07:33:55;;;;;;;9.80;7.72;;;24.80;99.90;;;;;;5007849;28;20223;-73
2022/06/04 07:36:29;;;;;;;9.35;8.07;;;25.10;99.90;;;;;;5007586;28;20724;-74
2022/06/04 07:38:56;;;;;;;9.73;8.07;;;25.50;99.90;;;;;;5009829;28;20197;-75
2022/06/04 07:41:26;;;;;;;8.68;7.05;;;25.70;99.90;;;;;;5008108;28;20290;-72
2022/06/04 07:43:53;;;;;;;7.32;5.78;;;25.90;99.90;;;;;;5002197;28;20574;-75
2022/06/04 07:46:21;;;;;;;8.82;5.78;;;25.90;99.90;;;;;;5006883;28;20310;-73
2022/06/04 07:48:49;;;;;;;9.95;6.15;;;26.20;99.90;;;;;;5002400;28;20200;-75
2022/06/04 07:51:16;;;;;;;10.65;6.30;;;26.60;99.90;;;;;;4984209;28;20208;-74
2022/06/04 07:53:44;;;;;;;10.85;5.47;;;27.00;99.90;;;;;;4985473;28;20270;-75
2022/06/04 07:56:14;;;;;;;5.70;4.32;;;27.30;99.90;;;;;;5000612;28;20224;-73
2022/06/04 07:58:41;;;;;;;5.28;4.43;;;27.70;99.90;;;;;;5000599;28;20674;-74
2022/06/04 08:01:10;;;;;;;4.75;4.32;;;28.00;99.90;;;;;;5001021;28;20200;-74
2022/06/04 08:03:37;;;;;;;6.90;4.32;;;28.30;99.90;;;;;;5000270;28;20200;-74
2022/06/04 08:06:05;;;;;;;5.80;4.00;;;28.60;99.90;;;;;;4984892;28;20216;-74
2022/06/04 08:08:32;;;;;;;4.45;4.05;;;28.20;99.90;;;;;;4985612;28;20211;-74
2022/06/04 08:10:59;;;;;;;10.60;4.20;;;28.00;99.90;;;;;;5000399;28;20665;-74
2022/06/04 08:13:28;;;;;;;4.53;3.97;;;27.80;99.90;;;;;;4985046;28;20829;-74
2022/06/04 08:16:01;;;;;;;5.43;4.20;;;27.90;99.90;;;;;;4998173;28;20299;-74
2022/06/04 08:18:28;;;;;;;4.35;3.95;;;27.90;99.90;;;;;;5001883;28;20676;-75
2022/06/04 08:20:54;;;;;;;4.55;4.10;;;27.70;99.90;;;;;;5000528;28;20196;-75
2022/06/04 08:23:21;;;;;;;4.50;4.03;;;27.50;99.90;;;;;;5000487;28;20223;-75
2022/06/04 08:25:50;;;;;;;4.85;4.03;;;27.70;99.90;;;;;;5000990;28;20696;-74
2022/06/04 08:28:18;;;;;;;7.60;4.10;;;28.10;99.90;;;;;;5000323;28;20209;-75
2022/06/04 08:30:45;;;;;;;4.85;4.00;;;28.30;99.90;;;;;;5001700;28;20216;-74
2022/06/04 08:33:12;;;;;;;7.82;4.20;;;28.60;99.90;;;;;;4999412;28;20312;-75
2022/06/04 08:35:38;;;;;;;5.05;4.00;;;29.00;99.90;;;;;;4999308;28;20216;-75
2022/06/04 08:38:05;;;;;;;5.55;4.38;;;28.90;99.90;;;;;;4999578;28;20197;-75
2022/06/04 08:40:38;;;;;;;4.18;3.78;;;29.30;99.90;;;;;;4985162;28;20200;-74
2022/06/04 08:43:18;;;;;;;6.20;4.30;;;29.60;99.90;;;;;;5003204;28;20227;-74
2022/06/04 08:45:45;;;;;;;3.97;3.50;;;29.80;99.90;;;;;;4998575;28;20212;-74
2022/06/04 08:48:36;;;;;;;6.10;3.85;;;29.50;99.90;;;;;;4998460;28;20203;-74
2022/06/04 08:51:10;;;;;;;4.00;3.70;;;29.00;99.90;;;;;;4999273;28;20231;-74
2022/06/04 08:53:38;;;;;;;4.45;3.80;;;28.60;99.90;;;;;;5007260;28;20285;-74
2022/06/04 08:59:38;;;;;;;5.22;4.03;;;28.80;99.90;;;;;;4975821;28;20204;-74
2022/06/04 09:02:13;;;;;;;4.97;3.70;;;28.60;99.90;;;;;;4998497;28;20201;-74
2022/06/04 09:05:18;;;;;;;3.85;3.42;;;29.00;99.90;;;;;;4997788;28;20249;-74
2022/06/04 09:07:50;;;;;;;3.95;3.40;;;29.00;99.90;;;;;;4931171;29;20198;-74
2022/06/04 09:10:25;;;;;;;3.85;3.40;;;29.10;99.90;;;;;;4951093;29;20199;-74
2022/06/04 09:13:05;;;;;;;4.13;3.67;;;29.00;99.90;;;;;;4974338;28;20219;-74
2022/06/04 09:15:38;;;;;;;3.75;3.13;;;29.20;99.90;;;;;;4999897;28;20216;-74
2022/06/04 09:18:32;;;;;;;3.35;3.03;;;29.20;99.90;;;;;;4998187;28;20207;-74
2022/06/04 09:21:01;;;;;;;4.63;3.47;;;29.50;99.90;;;;;;4997939;28;20193;-74
2022/06/04 09:23:34;;;;;;;4.25;3.25;;;29.30;99.90;;;;;;4999189;28;20673;-74
2022/06/04 09:26:08;;;;;;;5.07;3.33;;;28.90;99.90;;;;;;4996795;28;20225;-74
2022/06/04 09:28:44;;;;;;;5.43;3.20;;;29.10;99.90;;;;;;5004379;28;20599;-74
2022/06/04 09:31:35;;;;;;;3.10;2.85;;;29.30;99.90;;;;;;4980002;28;20211;-73
2022/06/04 09:34:01;;;;;;;3.85;2.90;;;29.70;99.90;;;;;;4979951;28;20629;-74
2022/06/04 09:36:32;;;;;;;3.65;2.88;;;29.60;99.90;;;;;;4996778;28;20594;-74
2022/06/04 09:39:19;;;;;;;4.95;2.90;;;30.00;99.90;;;;;;4997278;28;20204;-74
2022/06/04 09:42:18;;;;;;;4.53;2.97;;;30.20;99.90;;;;;;4997234;28;20609;-74
2022/06/04 09:45:03;;;;;;;3.38;3.08;;;30.60;99.90;;;;;;4996324;28;20266;-74
2022/06/04 09:47:45;;;;;;;3.45;3.15;;;30.70;99.90;;;;;;4999108;28;20197;-74
2022/06/04 09:50:35;;;;;;;3.20;2.90;;;30.60;99.90;;;;;;4979534;28;20687;-74
2022/06/04 09:53:24;;;;;;;4.07;3.10;;;30.50;99.90;;;;;;4994692;28;20221;-75
2022/06/04 09:55:53;;;;;;;3.45;3.10;;;30.90;99.90;;;;;;4996535;28;20212;-75
2022/06/04 09:58:32;;;;;;;4.82;3.20;;;30.30;99.90;;;;;;4996612;28;20197;-75
2022/06/04 10:01:19;;;;;;;3.90;3.08;;;29.90;99.90;;;;;;4996248;28;20199;-75
2022/06/04 10:03:58;;;;;;;5.07;3.20;;;29.70;99.90;;;;;;4995978;28;20714;-73
2022/06/04 10:06:27;;;;;;;4.35;3.10;;;29.30;99.90;;;;;;4996842;28;20235;-74
2022/06/04 10:11:53;;;;;;;4.60;3.40;;;29.70;99.90;;;;;;4995784;28;20548;-75
2022/06/04 10:14:34;;;;;;;3.83;3.50;;;30.10;99.90;;;;;;4995794;28;20220;-73
2022/06/04 10:17:02;;;;;;;4.38;3.20;;;30.20;99.90;;;;;;4978042;28;20691;-74
2022/06/04 10:19:33;;;;;;;6.43;3.50;;;30.60;99.90;;;;;;4997040;28;20200;-74
2022/06/04 10:22:12;;;;;;;3.53;3.22;;;30.80;99.90;;;;;;4995566;28;20197;-74
2022/06/04 10:24:54;;;;;;;3.55;2.92;;;31.00;99.90;;;;;;4997464;28;20220;-74
2022/06/04 10:27:50;;;;;;;6.13;3.58;;;31.40;99.90;;;;;;4996000;28;20223;-74
2022/06/04 10:30:32;;;;;;;3.47;3.17;;;31.70;99.90;;;;;;4995051;28;20201;-73
2022/06/04 10:33:05;;;;;;;2.92;2.70;;;32.10;99.90;;;;;;4995414;28;20216;-74
2022/06/04 10:36:01;;;;;;;3.85;3.10;;;32.50;99.90;;;;;;4996245;28;20646;-75
2022/06/04 10:38:47;;;;;;;3.35;3.03;;;32.90;99.90;;;;;;4996305;28;20193;-74
2022/06/04 10:41:26;;;;;;;3.35;2.92;;;33.20;99.90;;;;;;4995261;28;20193;-74
2022/06/04 10:44:17;;;;;;;3.42;3.10;;;32.80;99.90;;;;;;4994658;28;20200;-74
2022/06/04 10:47:21;;;;;;;5.70;2.95;;;31.70;99.90;;;;;;4996786;28;20603;-73
2022/06/04 10:50:12;;;;;;;3.60;3.17;;;30.70;99.90;;;;;;4995653;28;20196;-73
2022/06/04 10:53:26;;;;;;;3.40;3.10;;;30.20;99.90;;;;;;5001710;28;20212;-73
2022/06/04 10:55:56;;;;;;;3.83;3.50;;;30.20;99.90;;;;;;4980203;28;20212;-73
2022/06/04 10:58:37;;;;;;;3.85;3.50;;;29.60;99.90;;;;;;4995172;28;20201;-71
2022/06/04 11:01:35;;;;;;;4.20;3.35;;;28.90;99.90;;;;;;4994238;28;20672;-73
2022/06/04 11:04:16;;;;;;;4.40;3.58;;;28.40;99.90;;;;;;4994541;28;20205;-74
2022/06/04 11:06:49;;;;;;;5.20;3.65;;;27.90;99.90;;;;;;4996006;28;20219;-74
2022/06/04 11:09:21;;;;;;;3.42;3.13;;;27.70;99.90;;;;;;4994131;28;20684;-74
2022/06/04 11:11:56;;;;;;;4.32;3.20;;;27.40;99.90;;;;;;4978717;28;20608;-74
2022/06/04 11:14:35;;;;;;;4.05;3.65;;;27.50;99.90;;;;;;4994221;28;20224;-72
2022/06/04 11:17:23;;;;;;;3.45;3.15;;;27.70;99.90;;;;;;4994300;28;20200;-73
2022/06/04 11:19:59;;;;;;;3.85;3.47;;;28.10;99.90;;;;;;4993869;28;20200;-74
2022/06/04 11:22:38;;;;;;;4.53;3.08;;;28.10;99.90;;;;;;4995151;28;20661;-74
2022/06/04 11:25:27;;;;;;;3.58;2.90;;;28.10;99.90;;;;;;4993930;28;20224;-74
2022/06/04 11:28:23;;;;;;;3.70;3.15;;;28.00;99.90;;;;;;4983893;28;20196;-74
2022/06/04 11:31:12;;;;;;;3.67;3.10;;;28.10;99.90;;;;;;4985379;28;20223;-73
2022/06/04 11:33:48;;;;;;;3.25;2.97;;;28.30;99.90;;;;;;4995291;28;20696;-73
2022/06/04 11:36:36;;;;;;;3.25;2.95;;;28.20;99.90;;;;;;4993525;28;20217;-74
2022/06/04 11:39:24;;;;;;;3.50;3.10;;;28.10;99.90;;;;;;4994102;28;20483;-74
2022/06/04 11:42:05;;;;;;;3.95;3.65;;;28.10;99.90;;;;;;4992878;28;20676;-73
2022/06/04 11:44:41;;;;;;;3.78;3.00;;;28.50;99.90;;;;;;4994627;28;20197;-74
2022/06/04 11:47:11;;;;;;;3.22;2.90;;;28.70;99.90;;;;;;4993634;28;20196;-74
2022/06/04 11:50:02;;;;;;;2.88;2.65;;;29.10;99.90;;;;;;4997307;28;20764;-74
2022/06/04 11:52:32;;;;;;;2.88;2.67;;;29.00;99.90;;;;;;4997765;28;20197;-73
2022/06/04 11:55:18;;;;;;;3.03;2.72;;;29.10;99.90;;;;;;4996962;28;20618;-72
2022/06/04 11:58:12;;;;;;;5.22;3.00;;;28.80;99.90;;;;;;4997181;28;20200;-74
2022/06/04 12:00:41;;;;;;;2.75;2.55;;;29.00;99.90;;;;;;5005233;28;20223;-73
2022/06/04 12:03:18;;;;;;;3.20;2.40;;;29.40;99.90;;;;;;4979752;28;20205;-74
2022/06/04 12:05:58;;;;;;;2.75;2.55;;;29.70;99.90;;;;;;4997684;28;20227;-74
2022/06/04 12:08:30;;;;;;;2.90;2.50;;;29.60;99.90;;;;;;4996523;28;20680;-73
2022/06/04 12:11:35;;;;;;;4.07;2.28;;;30.20;99.90;;;;;;4996815;28;20620;-74
2022/06/04 12:14:14;;;;;;;2.50;2.30;;;30.00;99.90;;;;;;4969139;28;20220;-74
2022/06/04 12:16:58;;;;;;;2.88;2.53;;;29.80;99.90;;;;;;4997295;28;20225;-75
2022/06/04 12:25:17;;;;;;;2.47;2.28;;;29.40;99.90;;;;;;4995843;28;20713;-74
2022/06/04 12:27:59;;;;;;;3.88;2.50;;;29.50;99.90;;;;;;4997240;28;20197;-75
2022/06/04 12:30:42;;;;;;;2.30;2.10;;;29.10;99.90;;;;;;4995509;28;20213;-73
2022/06/04 12:33:33;;;;;;;2.40;2.20;;;29.20;99.90;;;;;;4991740;28;20220;-75
2022/06/04 12:36:07;;;;;;;2.00;1.80;;;29.50;99.90;;;;;;4995325;28;20213;-74
2022/06/04 12:38:44;;;;;;;2.10;1.80;;;29.80;99.90;;;;;;4996416;28;20207;-74
2022/06/04 12:41:16;;;;;;;1.80;1.70;;;30.10;99.90;;;;;;5000910;28;20228;-75
2022/06/04 12:43:59;;;;;;;3.58;1.98;;;30.30;99.90;;;;;;4996827;28;20205;-75
2022/06/04 12:46:27;;;;;;;2.47;1.83;;;30.40;99.90;;;;;;4994818;28;20228;-74
2022/06/04 12:48:59;;;;;;;1.92;1.73;;;30.70;99.90;;;;;;5002413;28;20196;-74
2022/06/04 12:51:31;;;;;;;1.70;1.60;;;30.90;99.90;;;;;;4995726;28;20284;-74
2022/06/04 12:54:23;;;;;;;1.80;1.70;;;31.00;99.90;;;;;;4995117;28;20224;-75
2022/06/04 12:56:54;;;;;;;2.55;2.35;;;31.30;99.90;;;;;;4995791;28;20616;-75
2022/06/04 12:59:41;;;;;;;3.45;2.15;;;31.10;99.90;;;;;;4998044;28;20201;-75
2022/06/04 13:02:33;;;;;;;2.60;2.03;;;31.20;99.90;;;;;;4997473;28;20224;-75
2022/06/04 13:05:12;;;;;;;2.67;1.98;;;31.20;99.90;;;;;;4998269;28;20216;-75
2022/06/04 13:07:49;;;;;;;3.70;2.10;;;30.90;99.90;;;;;;4998429;28;20227;-75
2022/06/04 13:10:25;;;;;;;2.63;2.10;;;30.60;99.90;;;;;;4994680;28;20211;-74
2022/06/04 13:13:16;;;;;;;3.50;2.00;;;30.30;99.90;;;;;;4997044;28;20684;-75
2022/06/04 13:15:53;;;;;;;2.05;1.83;;;30.00;99.90;;;;;;4995901;28;20216;-75
2022/06/04 13:18:37;;;;;;;2.38;2.17;;;30.00;99.90;;;;;;4994036;28;20671;-74
2022/06/04 13:21:12;;;;;;;2.30;1.92;;;30.00;99.90;;;;;;4993997;28;20271;-72
2022/06/04 13:23:58;;;;;;;1.98;1.77;;;30.20;99.90;;;;;;4994358;28;20211;-75
2022/06/04 13:26:47;;;;;;;2.58;2.30;;;30.30;99.90;;;;;;4993419;28;20614;-74
2022/06/04 13:29:28;;;;;;;4.50;2.30;;;30.20;99.90;;;;;;4993565;28;20618;-75
2022/06/04 13:32:12;;;;;;;2.85;2.17;;;29.80;99.90;;;;;;5000764;28;20799;-75
2022/06/04 13:34:40;;;;;;;2.03;1.83;;;29.60;99.90;;;;;;4993994;28;20225;-74
2022/06/04 13:37:24;;;;;;;2.78;1.95;;;29.50;99.90;;;;;;5000730;28;20212;-75
2022/06/04 13:39:54;;;;;;;1.98;1.77;;;29.70;99.90;;;;;;4994034;28;20196;-74